Chase, Louisiana
Current Conditions -  °F | °C
As of 3:10 AM on Monday 22 Dec 2014 (Local Time) from KMLU Reporting Station
Haze Haze  
Wind Chill: 45°   Ceiling: 300
Heat Index: 47°   Visibility: 0.75mi
Dew Point: 47°   Wind: 5mph
Humidity: 100%   Direction: 140°SE
Pressure: 29.86"   Gusts: NA
Location:  32.1°N, 91.7°W
Report Text: KMLU 220910Z AUTO 14004KT 3/4SM BR VV003 08/08 A2986 RMK AO2 T00830083
Loading
Personal Weather Stations






























Interactive Weather Map New forecast layout! Learn more

10-Day Weather Forecast

Advertisements
Track Severe Weather on mobile